Stations météo

réclame
Mon MeteoGroup
Cerezo De Arriba, Espagne (8143): Température de l'air & dewpoint: 08.08.2018 23:00:00 - 14.08.2018 23:00:00 (CEST)Cerezo De Arriba, Espagne (8143): Vitesse du vent & gusts: 08.08.2018 23:00:00 - 14.08.2018 23:00:00 (CEST)Cerezo De Arriba, Espagne (8143): Direction du vent: 08.08.2018 23:00:00 - 14.08.2018 23:00:00 (CEST)Cerezo De Arriba, Espagne (8143): visibility: 08.08.2018 23:00:00 - 14.08.2018 23:00:00 (CEST)Cerezo De Arriba, Espagne (8143): Ensoleillement: 08.08.2018 23:00:00 - 14.08.2018 23:00:00 (CEST)Cerezo De Arriba, Espagne (8143): Quantités de précipitations: 08.08.2018 23:00:00 - 14.08.2018 23:00:00 (CEST)
Date & Time tt [°C] td [°C] ff [km/h] ff [knt] fx [km/h] fx [knt] dd vv [km] sd [min] rr [mm]
14.08.2018 23:00:00 15,9 -0,5 9 5 16 8 SSW 20 0 0,0
14.08.2018 22:00:00 13,9 5,0 3 2 7 4 S 20 0 0,0
14.08.2018 21:00:00 17,1 4,5 2 1 15 8 W 20 31 0,0
14.08.2018 20:00:00 19,9 3,2 9 5 22 12 N 20 60 -
14.08.2018 19:00:00 20,7 3,8 12 7 26 14 N 20 60 0,0
14.08.2018 18:00:00 21,6 5,9 11 6 29 16 N 20 60 0,0
14.08.2018 17:00:00 21,4 6,5 10 6 27 15 NNE 20 60 0,0
14.08.2018 16:00:00 20,6 6,1 9 5 28 15 N 20 60 0,0
14.08.2018 15:00:00 20,0 7,0 12 6 27 14 N 20 60 0,0
14.08.2018 14:00:00 19,0 8,9 15 8 31 17 N 20 60 -
14.08.2018 13:00:00 18,2 8,8 8 5 23 13 N 20 60 0,0
14.08.2018 12:00:00 17,9 7,8 8 4 19 10 NE 20 60 0,0
14.08.2018 11:00:00 17,1 8,5 8 5 18 10 NNE 18 60 0,0
14.08.2018 10:00:00 17,7 8,5 4 2 13 7 SSW 20 60 0,0
14.08.2018 09:00:00 14,5 8,4 4 2 11 6 SE 20 10 0,0
14.08.2018 08:00:00 12,2 7,3 4 2 14 8 WSW 20 0 -
14.08.2018 07:00:00 12,2 7,6 9 5 14 8 SSE 20 0 0,0
14.08.2018 06:00:00 12,1 6,5 8 5 14 7 SSE 20 0 0,0
14.08.2018 05:00:00 12,2 4,5 5 3 10 6 S 20 0 0,0
14.08.2018 04:00:00 13,0 3,9 7 4 14 8 S 20 0 0,0
14.08.2018 03:00:00 12,8 4,5 10 6 14 7 SSE 20 0 0,0
14.08.2018 02:00:00 12,9 4,8 8 5 16 9 SSE 20 0 -
14.08.2018 01:00:00 13,2 5,8 8 4 13 7 SSE 20 0 0,0
14.08.2018 00:00:00 13,4 3,4 4 2 9 5 SSE 20 0 0,0
13.08.2018 23:00:00 13,8 3,6 3 2 8 4 S 20 0 0,0
13.08.2018 22:00:00 15,4 3,6 3 2 17 9 NW 20 0 0,0
13.08.2018 21:00:00 17,3 2,5 8 5 19 10 NW 20 33 0,0
13.08.2018 20:00:00 19,5 3,9 10 6 29 16 N 20 60 -
13.08.2018 19:00:00 20,2 2,5 11 6 28 15 NW 20 60 0,0
13.08.2018 18:00:00 20,1 5,0 14 7 33 18 N 20 60 0,0
13.08.2018 17:00:00 20,3 6,5 14 8 35 19 N 20 60 0,0
13.08.2018 16:00:00 19,9 8,5 10 5 29 15 WNW 20 58 0,0
13.08.2018 15:00:00 19,4 11,2 7 4 26 14 NW 20 53 0,0
13.08.2018 14:00:00 19,4 11,2 8 5 19 10 W 20 60 -
13.08.2018 13:00:00 18,3 11,8 6 3 18 10 NW 20 60 0,0
13.08.2018 12:00:00 17,0 11,9 6 3 21 11 NNE 20 60 0,0
13.08.2018 11:00:00 16,2 11,1 8 4 21 11 NE 20 60 0,0
13.08.2018 10:00:00 15,7 10,6 3 2 27 14 NE 20 60 0,0
13.08.2018 09:00:00 14,8 8,3 7 4 34 18 SSW 20 11 0,0
13.08.2018 08:00:00 14,5 6,4 16 9 29 15 S 20 0 -
13.08.2018 07:00:00 13,0 8,9 3 1 30 16 W 20 0 0,0
13.08.2018 06:00:00 12,7 9,2 5 3 26 14 SW 20 0 0,0
13.08.2018 05:00:00 13,1 8,8 14 7 29 15 S 20 0 0,0
13.08.2018 04:00:00 13,8 8,0 8 4 23 12 SSW 20 0 0,0
13.08.2018 03:00:00 14,5 8,3 8 4 19 10 SW 20 0 0,0
13.08.2018 02:00:00 14,9 7,7 9 5 20 11 SE 20 0 -
13.08.2018 01:00:00 15,6 5,0 6 3 36 19 NNW 20 0 0,0
13.08.2018 00:00:00 16,2 2,7 6 3 16 9 NNE 20 0 6,0
12.08.2018 23:00:00 16,6 1,9 7 4 29 16 SW 20 0 1,2
12.08.2018 22:00:00 18,2 6,1 9 5 31 17 N 20 0 0,4
12.08.2018 21:00:00 19,9 5,9 10 5 31 17 NNE 20 0 0,2
12.08.2018 20:00:00 20,0 6,7 13 7 35 19 SE 20 6 -
12.08.2018 19:00:00 21,0 8,9 10 6 39 21 SE 18 23 0,2
12.08.2018 18:00:00 20,2 9,2 26 14 44 24 S 19 34 0,2
12.08.2018 17:00:00 17,8 8,7 28 15 60 33 S 20 0 0,6
12.08.2018 16:00:00 18,5 11,6 11 6 36 19 S 2,0 10 0,4
12.08.2018 15:00:00 17,9 7,6 23 12 51 27 S 20 0 0,6
12.08.2018 14:00:00 21,4 9,3 10 5 30 16 WSW 20 26 -
12.08.2018 13:00:00 21,4 11,7 14 8 34 18 WNW 20 44 0,0
12.08.2018 12:00:00 21,3 10,2 7 4 24 13 SSW 17 44 0,2
12.08.2018 11:00:00 22,6 9,0 7 4 29 16 SSE 20 44 0,0
12.08.2018 10:00:00 21,9 7,0 11 6 31 17 SW 20 59 0,0
12.08.2018 09:00:00 19,0 7,7 21 11 35 19 S 20 13 0,0
12.08.2018 08:00:00 17,8 7,0 26 14 38 21 S 20 0 -
12.08.2018 07:00:00 17,5 6,4 27 14 36 19 S 20 0 0,0
12.08.2018 06:00:00 17,3 6,5 24 13 39 21 S 20 0 0,0
12.08.2018 05:00:00 17,4 9,8 25 13 39 21 S 18 0 0,0
12.08.2018 04:00:00 17,7 6,8 26 14 36 20 S 20 0 0,0
12.08.2018 03:00:00 18,0 4,5 14 8 27 15 S 20 0 0,0
12.08.2018 02:00:00 18,8 5,3 15 8 25 14 S 20 0 -
12.08.2018 01:00:00 18,6 5,1 14 8 23 12 S 20 0 0,0
12.08.2018 00:00:00 18,9 5,3 19 10 27 15 S 20 0 0,0
11.08.2018 23:00:00 19,4 5,8 19 10 26 14 S 20 0 0,0
11.08.2018 22:00:00 19,7 6,4 19 10 28 15 S 20 0 0,0
11.08.2018 21:00:00 20,5 6,4 15 8 26 14 S 20 27 0,0
11.08.2018 20:00:00 21,3 6,8 18 10 34 18 SSW 20 48 -
11.08.2018 19:00:00 23,0 7,8 16 8 29 15 SSW 18 58 0,0
11.08.2018 18:00:00 22,9 7,4 16 8 36 19 S 20 60 0,0
11.08.2018 17:00:00 21,9 8,0 19 10 44 24 SSW 17 57 0,0
11.08.2018 16:00:00 23,1 6,4 14 8 37 20 SW 20 46 0,0
11.08.2018 15:00:00 22,5 6,7 9 5 44 24 WNW 15 45 0,0
11.08.2018 14:00:00 22,9 6,2 7 4 34 18 W 20 59 -
11.08.2018 13:00:00 22,7 2,7 10 6 36 19 WSW 20 60 0,0
11.08.2018 12:00:00 21,4 6,1 10 5 21 11 NW 20 57 0,0
11.08.2018 11:00:00 21,0 6,5 5 3 21 11 WSW 20 60 0,0
11.08.2018 10:00:00 20,8 8,1 6 3 10 6 SE 20 60 0,0
11.08.2018 09:00:00 19,0 7,1 4 2 14 7 WNW 20 18 0,0
11.08.2018 08:00:00 15,9 7,7 8 5 14 8 SW 20 0 -
11.08.2018 07:00:00 15,5 8,5 10 6 29 16 SSW 20 0 0,0
11.08.2018 06:00:00 15,0 11,3 27 14 39 21 S 19 0 0,0
11.08.2018 05:00:00 15,2 11,6 30 16 49 26 S 20 0 0,0
11.08.2018 04:00:00 15,4 12,3 36 20 56 30 S 15 0 0,0
11.08.2018 03:00:00 15,9 11,9 31 17 70 38 S 17 0 0,0
11.08.2018 02:00:00 16,4 9,8 19 10 58 32 S 20 0 -
11.08.2018 01:00:00 17,6 5,5 8 4 29 15 SSE 20 0 0,0
11.08.2018 00:00:00 17,6 6,1 4 2 14 8 NNE 20 0 0,0
10.08.2018 23:00:00 16,5 4,8 4 2 15 8 WSW 20 0 0,0
10.08.2018 22:00:00 16,5 4,1 13 7 16 9 S 20 0 0,0
10.08.2018 21:00:00 18,8 4,1 9 5 21 12 SSW 20 35 0,0
10.08.2018 20:00:00 21,5 3,6 10 5 22 12 WSW 20 57 -
10.08.2018 19:00:00 20,3 3,4 12 6 28 15 WSW 20 17 0,0
10.08.2018 18:00:00 22,3 5,3 12 6 31 17 SW 20 60 0,0
10.08.2018 17:00:00 22,1 5,1 13 7 30 16 W 20 60 0,0
10.08.2018 16:00:00 21,5 6,5 13 7 33 18 WSW 20 60 0,0
10.08.2018 15:00:00 21,2 6,7 7 4 40 22 SW 20 60 0,0
10.08.2018 14:00:00 19,1 6,5 16 9 42 23 NW 20 53 -
10.08.2018 13:00:00 18,3 8,3 13 7 40 22 SSW 20 56 0,0
10.08.2018 12:00:00 17,0 9,7 19 10 52 28 SSW 17 59 0,0
10.08.2018 11:00:00 15,5 9,4 24 13 44 24 S 19 53 0,0
10.08.2018 10:00:00 15,8 6,8 19 11 36 19 SSE 19 60 0,0
10.08.2018 09:00:00 14,7 6,5 21 12 25 13 S 20 22 0,0
10.08.2018 08:00:00 13,0 6,1 21 12 27 15 S 20 0 -
10.08.2018 07:00:00 12,4 5,1 19 10 24 13 S 20 0 0,0
10.08.2018 06:00:00 11,9 4,8 12 6 29 16 S 20 0 0,0
10.08.2018 05:00:00 11,2 3,4 20 11 26 14 SSE 20 0 0,0
10.08.2018 04:00:00 11,2 2,5 10 5 15 8 SSE 20 0 0,0
10.08.2018 03:00:00 11,4 3,2 10 5 15 8 SSE 20 0 0,0
10.08.2018 02:00:00 11,0 3,2 9 5 14 8 S 20 0 -
10.08.2018 01:00:00 11,5 3,6 9 5 18 10 SSE 20 0 0,0
10.08.2018 00:00:00 11,6 3,8 8 4 17 9 SSE 20 0 0,0
09.08.2018 23:00:00 11,0 3,2 7 4 16 9 SE 20 0 0,0
09.08.2018 22:00:00 11,1 3,4 6 3 11 6 ESE 20 0 0,0
09.08.2018 21:00:00 12,8 3,9 6 3 26 14 N 20 38 0,0
09.08.2018 20:00:00 15,6 4,6 13 7 27 14 NNE 20 43 -
09.08.2018 19:00:00 16,8 4,5 13 7 32 17 N 20 38 0,0
09.08.2018 18:00:00 18,0 4,5 13 7 32 17 N 20 59 0,0
09.08.2018 17:00:00 18,1 6,2 13 7 37 20 N 20 56 0,0
09.08.2018 16:00:00 16,8 7,1 14 7 29 16 N 20 45 0,0
09.08.2018 15:00:00 15,9 8,4 10 6 29 16 N 20 37 0,0
09.08.2018 14:00:00 16,4 9,0 9 5 25 14 NNW 20 38 -
09.08.2018 13:00:00 13,9 9,2 7 4 21 11 WNW 17 3 0,0
09.08.2018 12:00:00 12,4 8,7 10 5 17 9 W 20 4 0,0
09.08.2018 11:00:00 11,8 8,8 4 2 16 9 NE 20 30 0,0
09.08.2018 10:00:00 12,8 8,5 8 4 15 8 WNW 19 54 0,0
09.08.2018 09:00:00 10,6 8,5 5 3 14 8 SSW 17 0 0,0
09.08.2018 08:00:00 10,1 8,4 6 4 23 12 S 12 0 -
09.08.2018 07:00:00 10,0 8,7 11 6 22 12 S 11 0 0,0
09.08.2018 06:00:00 - - - - - - - - - -
09.08.2018 05:00:00 11,2 7,8 6 4 22 12 W 19 0 0,0
09.08.2018 04:00:00 11,3 7,0 7 4 20 11 SSW 20 0 0,0
09.08.2018 03:00:00 12,4 6,4 8 4 29 15 S 20 0 0,0
09.08.2018 02:00:00 14,2 4,8 13 7 35 19 SSE 20 0 -
09.08.2018 01:00:00 15,9 2,3 10 6 36 20 SSW 20 0 0,0
09.08.2018 00:00:00 17,1 2,3 16 9 38 21 SSE 20 0 0,0
08.08.2018 23:00:00 17,9 3,0 10 6 27 15 SE 20 0 0,0

tt = Température de l'air
td = dewpoint
ff = Vitesse du vent
fx = gusts
dd = Direction du vent
vv = visibility
sd = Ensoleillement
rr = Quantités de précipitations

stations d'obs. à proximité